createdAt,value
2018-03-26T00:00:06.319Z,12.30
2018-03-26T00:02:35.655Z,11.67
2018-03-26T00:05:04.802Z,11.67
2018-03-26T00:07:34.839Z,11.20
2018-03-26T00:10:04.228Z,11.20
2018-03-26T00:12:33.334Z,11.60
2018-03-26T00:15:03.174Z,10.90
2018-03-26T00:17:32.451Z,10.73
2018-03-26T00:20:01.448Z,9.77
2018-03-26T00:22:31.490Z,11.57
2018-03-26T00:25:00.560Z,11.00
2018-03-26T00:27:29.862Z,11.50
2018-03-26T00:29:58.862Z,10.13
2018-03-26T00:32:28.090Z,9.80
2018-03-26T00:34:57.243Z,9.87
2018-03-26T00:37:26.310Z,10.07
2018-03-26T00:39:56.267Z,9.90
2018-03-26T00:42:25.571Z,10.20
2018-03-26T00:44:55.574Z,9.07
2018-03-26T00:47:24.952Z,10.53
2018-03-26T00:49:54.086Z,9.33
2018-03-26T00:52:23.395Z,9.40
2018-03-26T00:54:53.087Z,9.47
2018-03-26T00:57:23.015Z,9.87
2018-03-26T00:59:52.115Z,9.63
2018-03-26T01:02:21.423Z,10.30
2018-03-26T01:04:51.394Z,9.50
2018-03-26T01:07:20.715Z,10.37
2018-03-26T01:09:49.834Z,9.83
2018-03-26T01:12:19.844Z,9.70
2018-03-26T01:14:49.011Z,9.37
2018-03-26T01:17:18.278Z,9.80
2018-03-26T01:19:47.351Z,9.70
2018-03-26T01:22:16.646Z,11.00
2018-03-26T01:24:45.651Z,8.80
2018-03-26T01:27:15.618Z,9.57
2018-03-26T01:29:44.758Z,9.57
2018-03-26T01:32:14.063Z,8.33
2018-03-26T01:34:43.162Z,8.53
2018-03-26T01:37:13.306Z,9.20
2018-03-26T01:39:42.298Z,8.90
2018-03-26T01:42:11.399Z,8.70
2018-03-26T01:44:40.391Z,8.37
2018-03-26T01:47:09.671Z,8.23
2018-03-26T01:49:39.642Z,6.90
2018-03-26T01:52:08.915Z,7.60
2018-03-26T01:54:38.008Z,7.10
2018-03-26T01:57:07.187Z,7.30
2018-03-26T01:59:36.786Z,7.43
2018-03-26T02:02:06.139Z,7.47
2018-03-26T02:04:36.007Z,6.77
2018-03-26T02:07:05.237Z,6.77
2018-03-26T02:09:34.137Z,5.70
2018-03-26T02:12:04.146Z,6.70
2018-03-26T02:14:33.243Z,6.60
2018-03-26T02:17:02.419Z,6.53
2018-03-26T02:19:31.411Z,6.10
2018-03-26T02:22:00.615Z,6.97
2018-03-26T02:24:29.639Z,6.53
2018-03-26T02:26:58.735Z,6.57
2018-03-26T02:29:27.727Z,6.50
2018-03-26T02:31:56.752Z,7.47
2018-03-26T02:34:25.712Z,5.37
2018-03-26T02:36:54.815Z,5.83
2018-03-26T02:39:23.967Z,7.53
2018-03-26T02:41:53.903Z,7.10
2018-03-26T02:44:23.019Z,7.43
2018-03-26T02:46:52.190Z,6.07
2018-03-26T02:49:21.290Z,7.33
2018-03-26T02:51:50.430Z,6.90
2018-03-26T02:54:19.415Z,7.70
2018-03-26T02:56:48.491Z,7.37
2018-03-26T02:59:17.508Z,6.20
2018-03-26T03:01:46.666Z,7.43
2018-03-26T03:04:15.651Z,8.70
2018-03-26T03:06:44.727Z,7.13
2018-03-26T03:09:14.502Z,7.43
2018-03-26T03:11:43.779Z,7.27
2018-03-26T03:14:13.779Z,6.03
2018-03-26T03:16:43.099Z,6.47
2018-03-26T03:19:12.187Z,7.30
2018-03-26T03:21:41.493Z,7.70
2018-03-26T03:24:10.596Z,7.70
2018-03-26T03:26:39.790Z,6.90
2018-03-26T03:29:08.719Z,7.53
2018-03-26T03:31:37.844Z,7.80
2018-03-26T03:34:06.675Z,9.43
2018-03-26T03:36:35.907Z,8.40
2018-03-26T03:39:05.211Z,9.47
2018-03-26T03:41:34.780Z,8.10
2018-03-26T03:44:03.907Z,8.80
2018-03-26T03:46:33.182Z,7.77
2018-03-26T03:49:02.174Z,8.40
2018-03-26T03:51:32.035Z,7.40
2018-03-26T03:54:01.246Z,8.00
2018-03-26T03:56:30.588Z,8.00
2018-03-26T03:58:59.690Z,8.10
2018-03-26T04:01:29.507Z,7.50
2018-03-26T04:03:59.318Z,8.50
2018-03-26T04:06:29.026Z,8.63
2018-03-26T04:08:57.947Z,9.63
2018-03-26T04:11:27.084Z,9.07
2018-03-26T04:13:56.425Z,6.90
2018-03-26T04:16:26.546Z,10.20
2018-03-26T04:18:55.571Z,8.40
2018-03-26T04:21:24.668Z,9.37
2018-03-26T04:23:53.662Z,10.20
2018-03-26T04:26:22.715Z,8.30
2018-03-26T04:28:51.806Z,8.50
2018-03-26T04:31:20.814Z,8.50
2018-03-26T04:33:49.794Z,8.30
2018-03-26T04:36:19.833Z,8.50
2018-03-26T04:38:49.934Z,9.30
2018-03-26T04:41:19.178Z,8.77
2018-03-26T04:43:48.376Z,8.13
2018-03-26T04:46:17.655Z,7.67
2018-03-26T04:48:47.627Z,8.30
2018-03-26T04:51:16.900Z,7.70
2018-03-26T04:53:45.995Z,9.90
2018-03-26T04:56:15.271Z,8.93
2018-03-26T04:58:44.267Z,8.00
2018-03-26T05:01:13.492Z,8.73
2018-03-26T05:03:42.383Z,8.80
2018-03-26T05:06:11.452Z,7.20
2018-03-26T05:08:41.363Z,8.70
2018-03-26T05:11:10.692Z,8.57
2018-03-26T05:13:39.763Z,11.07
2018-03-26T05:16:08.895Z,10.37
2018-03-26T05:18:37.892Z,7.70
2018-03-26T05:21:07.021Z,8.80
2018-03-26T05:23:37.514Z,8.43
2018-03-26T05:26:06.611Z,8.23
2018-03-26T05:28:35.607Z,9.57
2018-03-26T05:31:04.676Z,9.37
2018-03-26T05:33:34.619Z,9.80
2018-03-26T05:36:03.910Z,8.50
2018-03-26T05:38:32.982Z,8.33
2018-03-26T05:41:02.194Z,8.73
2018-03-26T05:43:31.178Z,8.43
2018-03-26T05:46:01.326Z,9.03
2018-03-26T05:48:30.425Z,10.47
2018-03-26T05:50:59.703Z,9.23
2018-03-26T05:53:29.675Z,8.70
2018-03-26T05:55:58.943Z,9.03
2018-03-26T05:58:28.015Z,8.73
2018-03-26T06:00:57.214Z,9.83
2018-03-26T06:03:27.227Z,8.77
2018-03-26T06:05:57.012Z,8.60
2018-03-26T06:08:25.970Z,7.83
2018-03-26T06:10:55.020Z,8.83
2018-03-26T06:13:23.958Z,8.23
2018-03-26T06:15:54.047Z,7.50
2018-03-26T06:18:23.247Z,8.10
2018-03-26T06:20:52.579Z,7.27
2018-03-26T06:23:21.731Z,7.90
2018-03-26T06:25:50.942Z,7.73
2018-03-26T06:28:20.027Z,8.53
2018-03-26T06:30:49.243Z,7.20
2018-03-26T06:33:18.603Z,6.97
2018-03-26T06:35:47.871Z,7.50
2018-03-26T06:38:22.343Z,8.63
2018-03-26T06:40:51.875Z,7.83
2018-03-26T06:43:21.003Z,8.50
2018-03-26T06:45:50.283Z,7.73
2018-03-26T06:48:19.506Z,8.73
2018-03-26T06:50:48.607Z,7.80
2018-03-26T06:53:18.220Z,7.03
2018-03-26T06:55:47.241Z,7.27
2018-03-26T06:58:16.330Z,8.33
2018-03-26T07:00:46.252Z,6.90
2018-03-26T07:03:16.311Z,7.73
2018-03-26T07:05:45.547Z,8.30
2018-03-26T07:08:14.535Z,8.07
2018-03-26T07:10:43.734Z,8.13
2018-03-26T07:13:12.695Z,9.40
2018-03-26T07:15:42.499Z,9.30
2018-03-26T07:18:11.707Z,8.73
2018-03-26T07:20:41.523Z,9.57
2018-03-26T07:23:10.403Z,8.23
2018-03-26T07:25:39.514Z,7.20
2018-03-26T07:28:08.439Z,8.20
2018-03-26T07:30:37.567Z,8.47
2018-03-26T07:33:06.483Z,8.33
2018-03-26T07:35:35.655Z,8.30
2018-03-26T07:38:04.574Z,7.60
2018-03-26T07:40:33.751Z,9.17
2018-03-26T07:43:02.663Z,7.70
2018-03-26T07:45:32.623Z,6.70
2018-03-26T07:48:01.696Z,7.07
2018-03-26T07:50:31.563Z,7.40
2018-03-26T07:53:00.767Z,8.57
2018-03-26T07:55:30.583Z,8.77
2018-03-26T07:57:59.655Z,8.63
2018-03-26T08:00:28.911Z,8.17
2018-03-26T08:02:57.798Z,9.17
2018-03-26T08:05:26.766Z,8.40
2018-03-26T08:07:55.731Z,7.30
2018-03-26T08:10:24.692Z,7.20
2018-03-26T08:12:53.620Z,8.80
2018-03-26T08:15:22.811Z,7.40
2018-03-26T08:17:51.834Z,7.57
2018-03-26T08:20:20.939Z,8.10
2018-03-26T08:22:49.903Z,8.10
2018-03-26T08:25:19.035Z,8.00
2018-03-26T08:27:47.986Z,7.27
2018-03-26T08:30:17.118Z,8.07
2018-03-26T08:32:46.083Z,8.57
2018-03-26T08:35:15.075Z,10.00
2018-03-26T08:37:44.074Z,7.67
2018-03-26T08:40:13.240Z,7.47
2018-03-26T08:42:43.771Z,7.80
2018-03-26T08:45:12.902Z,8.43
2018-03-26T08:47:41.911Z,9.20
2018-03-26T08:50:11.117Z,7.07
2018-03-26T08:52:40.363Z,6.83
2018-03-26T08:55:09.566Z,7.70
2018-03-26T08:57:40.322Z,7.87
2018-03-26T09:00:09.327Z,7.20
2018-03-26T09:02:38.523Z,8.40
2018-03-26T09:05:07.515Z,7.63
2018-03-26T09:07:36.483Z,7.40
2018-03-26T09:10:05.643Z,8.30
2018-03-26T09:12:34.603Z,9.43
2018-03-26T09:15:03.600Z,6.97
2018-03-26T09:17:32.702Z,8.10
2018-03-26T09:20:01.942Z,7.57
2018-03-26T09:22:30.911Z,8.17
2018-03-26T09:24:59.883Z,8.13
2018-03-26T09:27:28.843Z,7.10
2018-03-26T09:29:58.008Z,8.30
2018-03-26T09:32:27.883Z,7.53
2018-03-26T09:34:57.058Z,8.00
2018-03-26T09:37:26.651Z,8.40
2018-03-26T09:39:55.863Z,9.23
2018-03-26T09:42:24.747Z,9.03
2018-03-26T09:44:53.852Z,8.10
2018-03-26T09:47:23.691Z,7.90
2018-03-26T09:49:52.864Z,9.50
2018-03-26T09:52:21.863Z,8.27
2018-03-26T09:54:51.094Z,8.83
2018-03-26T09:57:20.346Z,7.17
2018-03-26T09:59:49.518Z,8.20
2018-03-26T10:02:18.587Z,8.73
2018-03-26T10:04:47.680Z,7.23
2018-03-26T10:07:16.530Z,9.13
2018-03-26T10:09:45.606Z,7.43
2018-03-26T10:12:14.528Z,6.23
2018-03-26T10:14:43.695Z,7.47
2018-03-26T10:17:12.659Z,7.80
2018-03-26T10:19:42.768Z,6.53
2018-03-26T10:22:11.862Z,6.30
2018-03-26T10:24:40.970Z,7.30
2018-03-26T10:27:10.062Z,7.33
2018-03-26T10:29:39.331Z,7.60
2018-03-26T10:32:09.208Z,6.57
2018-03-26T10:34:38.478Z,8.60
2018-03-26T10:37:07.577Z,6.97
2018-03-26T10:39:36.747Z,7.13
2018-03-26T10:42:05.844Z,7.30
2018-03-26T10:44:35.963Z,7.67
2018-03-26T10:47:05.055Z,7.20
2018-03-26T10:49:34.909Z,6.30
2018-03-26T10:52:03.895Z,7.63
2018-03-26T10:54:32.995Z,6.20
2018-03-26T10:57:02.059Z,7.03
2018-03-26T10:59:31.327Z,6.90
2018-03-26T11:02:00.239Z,6.80
2018-03-26T11:04:29.347Z,6.23
2018-03-26T11:06:59.190Z,6.83
2018-03-26T11:09:28.467Z,6.57
2018-03-26T11:11:57.564Z,6.87
2018-03-26T11:14:27.609Z,7.70
2018-03-26T11:16:56.602Z,5.97
2018-03-26T11:19:25.880Z,6.70
2018-03-26T11:21:55.079Z,6.30
2018-03-26T11:24:24.239Z,5.90
2018-03-26T11:26:54.090Z,6.70
2018-03-26T11:29:23.403Z,5.43
2018-03-26T11:31:52.491Z,6.07
2018-03-26T11:34:21.622Z,6.50
2018-03-26T11:36:50.683Z,5.57
2018-03-26T11:39:19.712Z,5.43
2018-03-26T11:41:48.749Z,5.40
2018-03-26T11:44:18.071Z,6.50
2018-03-26T11:46:47.055Z,5.10
2018-03-26T11:49:16.991Z,5.53
2018-03-26T11:51:46.083Z,5.83
2018-03-26T11:54:15.107Z,4.50
2018-03-26T11:56:44.171Z,5.67
2018-03-26T11:59:13.643Z,5.57
2018-03-26T12:01:42.498Z,5.87
2018-03-26T12:04:11.626Z,5.77
2018-03-26T12:06:41.479Z,5.60
2018-03-26T12:09:11.291Z,6.00
2018-03-26T12:11:41.135Z,5.60
2018-03-26T12:14:10.411Z,5.40
2018-03-26T12:16:39.507Z,4.57
2018-03-26T12:19:09.551Z,5.03
2018-03-26T12:21:38.515Z,5.50
2018-03-26T12:24:19.377Z,4.60
2018-03-26T12:26:48.752Z,5.50
2018-03-26T12:29:30.178Z,5.20
2018-03-26T12:31:59.274Z,6.13
2018-03-26T12:34:40.954Z,6.17
2018-03-26T12:37:10.847Z,6.00
2018-03-26T12:39:40.291Z,5.20
2018-03-26T12:42:10.367Z,5.60
2018-03-26T12:44:51.167Z,5.63
2018-03-26T12:47:20.058Z,6.33
2018-03-26T12:49:49.171Z,6.10
2018-03-26T12:52:29.823Z,5.50
2018-03-26T12:55:00.019Z,6.10
2018-03-26T12:57:41.430Z,5.87
2018-03-26T13:00:11.321Z,5.80
2018-03-26T13:02:42.296Z,4.87
2018-03-26T13:05:11.639Z,5.50
2018-03-26T13:07:40.727Z,6.40
2018-03-26T13:10:10.003Z,4.57
2018-03-26T13:12:39.134Z,5.43
2018-03-26T13:15:08.331Z,5.60
2018-03-26T13:17:38.211Z,6.03
2018-03-26T13:20:07.515Z,6.13
2018-03-26T13:22:36.511Z,6.40
2018-03-26T13:25:05.607Z,5.40
2018-03-26T13:27:35.584Z,5.80
2018-03-26T13:30:05.234Z,4.77
2018-03-26T13:32:35.207Z,5.00
2018-03-26T13:35:04.488Z,5.50
2018-03-26T13:37:33.647Z,4.83
2018-03-26T13:40:02.852Z,4.77
2018-03-26T13:42:31.946Z,5.73
2018-03-26T13:45:02.503Z,5.80
2018-03-26T13:47:31.598Z,6.23
2018-03-26T13:50:00.881Z,5.00
2018-03-26T13:52:29.975Z,5.37
2018-03-26T13:54:59.203Z,5.90
2018-03-26T13:57:28.095Z,5.87
2018-03-26T13:59:57.295Z,5.30
2018-03-26T14:02:27.388Z,5.50
2018-03-26T14:04:56.683Z,5.50
2018-03-26T14:07:25.706Z,5.47
2018-03-26T14:10:06.309Z,5.50
2018-03-26T14:12:46.692Z,5.73
2018-03-26T14:15:28.077Z,7.10
2018-03-26T14:18:02.722Z,5.37
2018-03-26T14:20:32.123Z,5.53
2018-03-26T14:23:01.231Z,4.90
2018-03-26T14:25:30.222Z,5.40
2018-03-26T14:27:59.311Z,5.60
2018-03-26T14:30:29.355Z,5.03
2018-03-26T14:32:58.451Z,5.00
2018-03-26T14:35:42.676Z,5.27
2018-03-26T14:38:11.798Z,4.70
2018-03-26T14:40:40.871Z,5.13
2018-03-26T14:43:09.990Z,5.30
2018-03-26T14:45:39.309Z,6.00
2018-03-26T14:48:08.298Z,5.90
2018-03-26T14:50:37.427Z,5.57
2018-03-26T14:53:06.386Z,5.63
2018-03-26T14:55:35.489Z,5.80
2018-03-26T14:58:04.480Z,5.93
2018-03-26T15:00:33.607Z,5.47
2018-03-26T15:03:02.674Z,5.70
2018-03-26T15:05:31.803Z,5.50
2018-03-26T15:08:00.763Z,6.20
2018-03-26T15:10:29.962Z,6.30
2018-03-26T15:12:58.964Z,6.03
2018-03-26T15:15:28.087Z,7.33
2018-03-26T15:17:57.930Z,5.90
2018-03-26T15:20:27.261Z,6.10
2018-03-26T15:22:56.341Z,6.60
2018-03-26T15:25:25.639Z,7.03
2018-03-26T15:27:55.551Z,7.07
2018-03-26T15:30:25.299Z,6.23
2018-03-26T15:32:54.295Z,7.70
2018-03-26T15:35:23.492Z,8.47
2018-03-26T15:37:52.352Z,7.50
2018-03-26T15:40:21.478Z,7.07
2018-03-26T15:42:50.538Z,7.57
2018-03-26T15:45:19.703Z,7.43
2018-03-26T15:47:48.670Z,7.30
2018-03-26T15:50:18.683Z,7.90
2018-03-26T15:52:47.756Z,6.97
2018-03-26T15:55:16.952Z,7.63
2018-03-26T15:57:45.974Z,7.27
2018-03-26T16:00:15.175Z,7.83
2018-03-26T16:02:49.675Z,8.53
2018-03-26T16:05:19.077Z,8.07
2018-03-26T16:07:48.171Z,7.40
2018-03-26T16:10:17.371Z,8.40
2018-03-26T16:12:47.342Z,8.20
2018-03-26T16:15:16.610Z,8.33
2018-03-26T16:17:45.683Z,8.10
2018-03-26T16:20:15.864Z,8.07
2018-03-26T16:22:45.109Z,8.63
2018-03-26T16:25:14.915Z,9.20
2018-03-26T16:27:44.759Z,8.50
2018-03-26T16:30:14.035Z,9.13
2018-03-26T16:32:43.132Z,8.70
2018-03-26T16:35:13.175Z,8.33
2018-03-26T16:37:42.446Z,8.30
2018-03-26T16:40:11.754Z,9.87
2018-03-26T16:42:45.755Z,9.50
2018-03-26T16:45:14.967Z,10.17
2018-03-26T16:47:44.353Z,10.10
2018-03-26T16:50:13.843Z,10.67
2018-03-26T16:52:42.716Z,11.03
2018-03-26T16:55:12.543Z,10.43
2018-03-26T16:57:41.562Z,10.57
2018-03-26T17:00:11.596Z,11.03
2018-03-26T17:02:40.691Z,12.30
2018-03-26T17:05:09.923Z,12.10
2018-03-26T17:07:39.079Z,11.80
2018-03-26T17:10:09.111Z,12.90
2018-03-26T17:12:39.082Z,11.63
2018-03-26T17:15:08.354Z,11.53
2018-03-26T17:17:37.449Z,10.90
2018-03-26T17:20:06.723Z,12.00
2018-03-26T17:22:35.823Z,11.43
2018-03-26T17:25:05.939Z,11.90
2018-03-26T17:27:35.166Z,12.70
2018-03-26T17:30:04.428Z,11.70
2018-03-26T17:32:34.563Z,12.13
2018-03-26T17:35:03.732Z,12.93
2018-03-26T17:37:32.855Z,12.60
2018-03-26T17:40:02.206Z,11.93
2018-03-26T17:42:32.244Z,12.47
2018-03-26T17:45:02.063Z,12.03
2018-03-26T17:47:31.299Z,12.83
2018-03-26T17:50:00.583Z,13.93
2018-03-26T17:52:35.360Z,12.20
2018-03-26T17:55:05.556Z,11.90
2018-03-26T17:57:34.543Z,12.50
2018-03-26T18:00:03.881Z,12.87
2018-03-26T18:02:33.860Z,11.90
2018-03-26T18:05:03.839Z,13.30
2018-03-26T18:07:33.067Z,11.30
2018-03-26T18:10:02.611Z,11.83
2018-03-26T18:12:31.688Z,12.70
2018-03-26T18:15:01.907Z,13.30
2018-03-26T18:17:31.035Z,11.73
2018-03-26T18:20:00.317Z,12.90
2018-03-26T18:22:29.407Z,12.70
2018-03-26T18:24:58.534Z,12.13
2018-03-26T18:27:27.599Z,12.67
2018-03-26T18:29:57.643Z,11.70
2018-03-26T18:32:26.711Z,12.30
2018-03-26T18:34:55.947Z,14.33
2018-03-26T18:37:25.990Z,12.30
2018-03-26T18:39:55.982Z,11.50
2018-03-26T18:42:24.931Z,12.50
2018-03-26T18:44:54.966Z,13.60
2018-03-26T18:47:24.066Z,13.03
2018-03-26T18:49:53.259Z,12.60
2018-03-26T18:52:23.171Z,13.07
2018-03-26T18:54:53.055Z,13.00
2018-03-26T18:57:22.104Z,12.40
2018-03-26T18:59:51.182Z,13.80
2018-03-26T19:02:20.543Z,13.97
2018-03-26T19:04:50.463Z,12.03
2018-03-26T19:07:19.615Z,12.87
2018-03-26T19:09:48.866Z,13.47
2018-03-26T19:12:18.159Z,11.03
2018-03-26T19:14:48.084Z,12.20
2018-03-26T19:17:17.102Z,14.10
2018-03-26T19:19:47.243Z,12.73
2018-03-26T19:22:16.331Z,13.47
2018-03-26T19:24:45.496Z,12.53
2018-03-26T19:27:14.455Z,13.00
2018-03-26T19:29:43.583Z,13.03
2018-03-26T19:32:12.505Z,13.83
2018-03-26T19:34:41.678Z,12.80
2018-03-26T19:37:10.595Z,12.87
2018-03-26T19:39:39.703Z,13.43
2018-03-26T19:42:09.443Z,12.50
2018-03-26T19:44:38.719Z,13.20
2018-03-26T19:47:07.823Z,13.73
2018-03-26T19:49:37.015Z,13.13
2018-03-26T19:52:06.987Z,12.63
2018-03-26T19:54:36.154Z,13.50
2018-03-26T19:57:05.223Z,13.33
2018-03-26T19:59:34.894Z,13.27
2018-03-26T20:02:04.647Z,13.10
2018-03-26T20:04:33.950Z,12.70
2018-03-26T20:07:03.051Z,13.80
2018-03-26T20:09:32.275Z,13.63
2018-03-26T20:12:02.044Z,13.33
2018-03-26T20:14:31.458Z,13.70
2018-03-26T20:17:01.264Z,12.93
2018-03-26T20:19:31.303Z,14.53
2018-03-26T20:22:00.214Z,14.70
2018-03-26T20:24:30.923Z,14.93
2018-03-26T20:27:00.899Z,12.70
2018-03-26T20:29:30.166Z,12.73
2018-03-26T20:32:00.099Z,12.77
2018-03-26T20:34:30.180Z,12.50
2018-03-26T20:36:59.275Z,12.70
2018-03-26T20:39:28.539Z,14.00
2018-03-26T20:41:57.459Z,13.40
2018-03-26T20:44:26.728Z,11.43
2018-03-26T20:46:55.955Z,12.40
2018-03-26T20:49:25.819Z,12.47
2018-03-26T20:51:54.880Z,14.13
2018-03-26T20:54:24.999Z,10.77
2018-03-26T20:56:54.095Z,11.73
2018-03-26T20:59:24.280Z,10.80
2018-03-26T21:01:53.420Z,13.10
2018-03-26T21:04:22.723Z,15.83
2018-03-26T21:06:52.724Z,18.53
2018-03-26T21:09:22.688Z,19.33
2018-03-26T21:11:51.683Z,17.93
2018-03-26T21:14:20.951Z,17.33
2018-03-26T21:16:49.935Z,17.03
2018-03-26T21:19:19.967Z,16.67
2018-03-26T21:21:49.943Z,18.90
2018-03-26T21:24:19.179Z,15.70
2018-03-26T21:26:48.307Z,16.77
2018-03-26T21:29:17.584Z,17.43
2018-03-26T21:31:46.675Z,17.40
2018-03-26T21:34:16.795Z,18.87
2018-03-26T21:36:46.603Z,16.37
2018-03-26T21:39:16.630Z,15.53
2018-03-26T21:41:46.609Z,17.03
2018-03-26T21:44:15.875Z,18.50
2018-03-26T21:46:44.972Z,18.60
2018-03-26T21:49:14.247Z,17.87
2018-03-26T21:51:44.223Z,16.67
2018-03-26T21:54:13.491Z,19.50
2018-03-26T21:56:42.563Z,19.53
2018-03-26T21:59:12.744Z,18.90
2018-03-26T22:01:41.885Z,21.07
2018-03-26T22:04:11.183Z,21.67
2018-03-26T22:06:40.284Z,21.40
2018-03-26T22:09:09.638Z,21.20
2018-03-26T22:11:39.627Z,22.63
2018-03-26T22:14:09.011Z,22.60
2018-03-26T22:16:38.310Z,22.37
2018-03-26T22:19:08.351Z,24.13
2018-03-26T22:21:37.447Z,23.33
2018-03-26T22:24:06.735Z,24.47
2018-03-26T22:26:35.823Z,26.00
2018-03-26T22:29:05.052Z,26.33
2018-03-26T22:31:35.039Z,25.93
2018-03-26T22:34:04.343Z,27.00
2018-03-26T22:36:34.343Z,27.90
2018-03-26T22:39:04.548Z,28.27
2018-03-26T22:41:34.498Z,27.67
2018-03-26T22:44:04.683Z,32.77
2018-03-26T22:46:33.815Z,32.80
2018-03-26T22:49:03.123Z,32.23
2018-03-26T22:51:32.218Z,32.67
2018-03-26T22:54:01.450Z,34.10
2018-03-26T22:56:31.327Z,33.30
2018-03-26T22:59:00.659Z,31.60
2018-03-26T23:01:29.664Z,32.70
2018-03-26T23:03:58.954Z,33.63
2018-03-26T23:06:28.135Z,33.93
2018-03-26T23:08:58.246Z,35.60
2018-03-26T23:11:27.343Z,35.20
2018-03-26T23:13:56.650Z,35.00
2018-03-26T23:16:26.622Z,34.60
2018-03-26T23:18:56.074Z,37.97
2018-03-26T23:21:26.074Z,35.20
2018-03-26T23:23:56.035Z,38.43
2018-03-26T23:26:25.038Z,37.27
2018-03-26T23:28:54.162Z,38.07
2018-03-26T23:31:23.018Z,37.80
2018-03-26T23:33:52.157Z,37.40
2018-03-26T23:36:21.197Z,37.50
2018-03-26T23:38:50.446Z,36.33
2018-03-26T23:41:19.362Z,37.47
2018-03-26T23:43:48.488Z,38.90
2018-03-26T23:46:17.459Z,38.60
2018-03-26T23:48:46.558Z,40.03
2018-03-26T23:51:16.408Z,36.97
2018-03-26T23:53:45.683Z,36.20
2018-03-26T23:56:14.574Z,40.90
2018-03-26T23:58:44.691Z,39.00
